Terminal Aerodrome Forecast
Issued by NWS Pueblo, CO

Home | Current Version | Previous Version | Text Only | Print | Product List | Glossary On
Versions: 1 2 3 4 5 6 7 8 9 10 11 12 13 14
000
FTUS45 KPUB 010524
TAFALS
TAF
KALS 010524Z 0106/0206 13007KT P6SM FEW030 SCT090 BKN120
     FM010800 VRB05KT P6SM SCT090 SCT120
     FM011900 18009KT P6SM SCT080 SCT150
     FM012300 19007KT P6SM VCTS SCT080CB BKN120
     FM020300 VRB06KT P6SM SCT080 BKN150=

USA.gov is the U.S. government's official web portal to all federal, state and local government web resources and services.